SBCT/CWB METAR and TAF weather

Enter ICAO airport designator
Station Type Date Time Source
SBCT METAR 2023/02/05 15:00 UTC NOAA

SBCT 051500Z 29008KT 9999 SCT035 26/16 Q1016


Station Type Date Time Source
SBCT Decoded METAR 2023/02/05 15:00 UTC NOAA

Curitiba Aeroporto , Brazil (SBCT) 25-31S 049-10W 908M
Feb 05, 2023 - 10:00 AM EST / 2023.02.05 1500 UTC
Wind: from the WNW (290 degrees) at 9 MPH (8 KT):0
Visibility: greater than 7 mile(s):0
Sky conditions: partly cloudy
Temperature: 78 F (26 C)
Dew Point: 60 F (16 C)
Relative Humidity: 54%
Pressure (altimeter): 30.00 in. Hg (1016 hPa)
ob: SBCT 051500Z 29008KT 9999 SCT035 26/16 Q1016
cycle: 15

Station Type Date Time Source
SBCT TAF 2023/02/05 12:28 UTC NOAA

TAF SBCT 050900Z 0512/0612 24008KT 9999 SCT025 TX29/0518Z TN18/0608Z PROB40
TEMPO 0518/0521 VCSH SCT030 FEW040TCU
BECMG 0522/0524 12004KT
BECMG 0602/0604 06004KT PROB40 0608/0611 4000 BR BKN002
RMK PEL

Example: see airport list